»·PEaware :: SCX154 KBUR-KSFO

SCX154 :: KBUR-KSFO

FLIGHT INFORMATION

Flight Status: Arrived
Operator:
Sun Country Airlines
More flights by this operator :: More flights under this callsign
Pilot: Ben F. (13029)
Aircraft: BOEING 737-800
(B738)
More flights by this aircraft type
Origin: KBUR Bob Hope-Burbank
United States
Destination: KSFO San Francisco Intl
United States
More flights between these airports :: More routes between these airports
Route: +OROSZ2 COREZ MAKRS SERFR SERFR4
File this flight plan on PilotEdge
Remarks: RMK / SIMBRIEF
Altitude:
(Current/Filed)
34,000ft
Speed:
(Current/Filed)
454kts
Departed: 01-Apr-20 02:49 PM
Arrived: 01-Apr-20 03:47 PM
Distance/Time
Traveled:
284nm/0:57
Distance/Time
To Go:
Arrived

Flight Plot

Page will automatically refresh every two minutes.

Flight plan parsing failed; only flown route is shown


Map Options




Map Legend


Flown Route
Filed Route
Departure Airport
Arrival Airport
Navaid (VOR, NDB)
Fix

Horizontal Profiles

Position Reports

Time Latitude Longitude Heading Altitude Ground
Speed
01-Apr-20 14:07 34.196495 -118.354951 132 788ft 0kts
01-Apr-20 14:08 34.196495 -118.354951 132 788ft 0kts
01-Apr-20 14:09 34.196495 -118.354951 132 788ft 0kts
01-Apr-20 14:10 34.196495 -118.354951 132 788ft 0kts
01-Apr-20 14:11 34.196495 -118.354951 132 788ft 0kts
01-Apr-20 14:20 34.196495 -118.354951 132 788ft 0kts
01-Apr-20 14:21 34.196495 -118.354951 132 788ft 0kts
01-Apr-20 14:22 34.196495 -118.354951 132 788ft 0kts
01-Apr-20 14:23 34.196495 -118.354951 132 788ft 0kts
01-Apr-20 14:23 34.196495 -118.354951 132 788ft 0kts
01-Apr-20 14:25 34.196495 -118.354951 132 788ft 0kts
01-Apr-20 14:26 34.196495 -118.354951 132 787ft 0kts
01-Apr-20 14:26 34.196495 -118.354951 132 787ft 0kts
01-Apr-20 14:27 34.196495 -118.354951 132 787ft 0kts
01-Apr-20 14:29 34.196495 -118.354951 132 787ft 0kts
01-Apr-20 14:29 34.196495 -118.354951 132 787ft 0kts
01-Apr-20 14:30 34.196495 -118.354951 132 787ft 0kts
01-Apr-20 14:32 34.196495 -118.354951 132 787ft 0kts
01-Apr-20 14:32 34.196495 -118.354951 132 787ft 0kts
01-Apr-20 14:33 34.196495 -118.354951 132 787ft 0kts
01-Apr-20 14:34 34.196514 -118.354978 134 788ft 2kts
01-Apr-20 14:35 34.196972 -118.355417 141 788ft 0kts
01-Apr-20 14:36 34.197031 -118.355585 89 787ft 0kts
01-Apr-20 14:37 34.197031 -118.355585 89 787ft 0kts
01-Apr-20 14:38 34.197031 -118.355585 89 787ft 0kts
01-Apr-20 14:39 34.197031 -118.355585 89 787ft 0kts
01-Apr-20 14:40 34.197038 -118.355566 69 787ft 0kts
01-Apr-20 14:41 34.200718 -118.355867 345 788ft 28kts
01-Apr-20 14:42 34.209686 -118.358597 298 787ft 12kts
01-Apr-20 14:43 34.209711 -118.358670 287 788ft 0kts
01-Apr-20 14:44 34.210867 -118.358079 323 788ft 0kts
01-Apr-20 14:45 34.210867 -118.358079 323 788ft 0kts
01-Apr-20 14:46 34.210867 -118.358079 323 788ft 0kts
01-Apr-20 14:47 34.211817 -118.359920 247 788ft 13kts
01-Apr-20 14:48 34.184886 -118.357086 202 1760ft 163kts
01-Apr-20 14:49 34.151061 -118.390349 222 3792ft 179kts
01-Apr-20 14:50 34.112683 -118.445715 264 4476ft 237kts
01-Apr-20 14:51 34.155525 -118.502695 347 7598ft 281kts
01-Apr-20 14:52 34.226835 -118.540181 326 10722ft 293kts
01-Apr-20 14:53 34.301350 -118.593467 327 13506ft 320kts
01-Apr-20 14:54 34.379952 -118.649498 330 16387ft 335kts
01-Apr-20 14:55 34.456324 -118.712744 311 18992ft 344kts
01-Apr-20 14:56 34.522536 -118.798691 311 21384ft 357kts
01-Apr-20 14:57 34.591107 -118.888054 311 23536ft 369kts
01-Apr-20 14:58 34.662031 -118.980722 311 25493ft 381kts
01-Apr-20 14:59 34.747655 -119.052577 350 27433ft 398kts
01-Apr-20 15:00 34.858512 -119.058771 354 28779ft 416kts
01-Apr-20 15:01 34.973792 -119.071488 336 30346ft 414kts
01-Apr-20 15:02 35.074899 -119.135206 324 31877ft 412kts
01-Apr-20 15:03 35.174800 -119.207234 324 33140ft 421kts
01-Apr-20 15:04 35.276490 -119.280547 324 33968ft 429kts
01-Apr-20 15:05 35.376194 -119.352609 324 33980ft 412kts
01-Apr-20 15:06 35.475389 -119.424629 322 33982ft 414kts
01-Apr-20 15:07 35.551052 -119.524621 295 33989ft 399kts
01-Apr-20 15:08 35.581978 -119.652109 279 33983ft 394kts
01-Apr-20 15:09 35.601653 -119.785185 279 33993ft 394kts
01-Apr-20 15:10 35.621163 -119.917382 279 33991ft 394kts
01-Apr-20 15:11 35.640573 -120.049961 279 33990ft 394kts
01-Apr-20 15:12 35.659844 -120.182636 279 33988ft 395kts
01-Apr-20 15:13 35.678961 -120.315308 279 33987ft 394kts
01-Apr-20 15:14 35.719643 -120.440774 293 33985ft 397kts
01-Apr-20 15:15 35.766837 -120.563648 293 33984ft 397kts
01-Apr-20 15:16 35.812927 -120.684688 292 33992ft 397kts
01-Apr-20 15:17 35.859684 -120.807960 292 33983ft 397kts
01-Apr-20 15:18 35.906122 -120.930778 292 33981ft 396kts
01-Apr-20 15:19 35.952576 -121.054118 292 33980ft 396kts
01-Apr-20 15:20 35.996942 -121.172374 293 33984ft 371kts
01-Apr-20 15:21 36.040764 -121.289618 293 34000ft 375kts
01-Apr-20 15:22 36.102929 -121.389972 319 34041ft 388kts
01-Apr-20 15:23 36.192452 -121.461434 322 34041ft 389kts
01-Apr-20 15:24 36.285881 -121.534509 323 30943ft 422kts
01-Apr-20 15:25 36.383061 -121.610582 323 28784ft 396kts
01-Apr-20 15:26 36.473832 -121.682052 323 26192ft 380kts
01-Apr-20 15:27 36.560752 -121.750840 323 23602ft 365kts
01-Apr-20 15:28 36.644770 -121.817335 323 21049ft 351kts
01-Apr-20 15:29 36.725476 -121.881226 326 18544ft 341kts
01-Apr-20 15:30 36.815400 -121.914977 343 16110ft 336kts
01-Apr-20 15:31 36.904871 -121.939800 343 14985ft 331kts
01-Apr-20 15:32 36.993208 -121.968911 338 14725ft 315kts
01-Apr-20 15:33 37.069419 -121.998831 337 13595ft 269kts
01-Apr-20 15:34 37.140106 -122.026490 337 11262ft 265kts
01-Apr-20 15:35 37.209453 -122.053617 338 9452ft 256kts
01-Apr-20 15:36 37.275787 -122.079629 339 7906ft 246kts
01-Apr-20 15:37 37.340608 -122.105197 339 6646ft 241kts
01-Apr-20 15:38 37.404571 -122.129032 342 5480ft 237kts
01-Apr-20 15:39 37.461744 -122.148506 341 4335ft 203kts
01-Apr-20 15:40 37.514377 -122.166610 340 3334ft 185kts
01-Apr-20 15:41 37.548865 -122.206658 293 2382ft 156kts
01-Apr-20 15:42 37.564973 -122.247731 297 1803ft 126kts
01-Apr-20 15:43 37.582679 -122.289375 297 1295ft 140kts
01-Apr-20 15:44 37.600080 -122.330671 296 545ft 124kts
01-Apr-20 15:45 37.615491 -122.367408 297 14ft 74kts
01-Apr-20 15:46 37.621335 -122.381350 298 34ft 30kts
01-Apr-20 15:47 37.620535 -122.383464 206 33ft 7kts
01-Apr-20 15:48 37.622607 -122.389205 280 32ft 22kts
01-Apr-20 15:49 37.619178 -122.389221 118 33ft 19kts
01-Apr-20 15:50 37.619719 -122.388268 27 34ft 0kts
01-Apr-20 15:51 37.619719 -122.388268 27 34ft 0kts

Navigation Log

Ident Type
Flight plan parsing failed, navigation log unavailable